createdAt,value
2022-08-19T00:01:00.286Z,25.03
2022-08-19T00:06:04.475Z,25.00
2022-08-19T00:11:08.503Z,24.96
2022-08-19T00:16:22.789Z,24.93
2022-08-19T00:21:29.913Z,24.90
2022-08-19T00:26:32.837Z,24.84
2022-08-19T00:31:36.783Z,24.78
2022-08-19T00:36:41.044Z,24.69
2022-08-19T00:41:47.843Z,24.60
2022-08-19T00:46:58.290Z,24.51
2022-08-19T00:52:15.174Z,24.49
2022-08-19T00:57:23.543Z,24.47
2022-08-19T01:02:28.732Z,24.43
2022-08-19T01:07:37.635Z,24.38
2022-08-19T01:12:42.155Z,24.30
2022-08-19T01:17:46.045Z,24.24
2022-08-19T01:22:53.297Z,24.16
2022-08-19T01:27:56.917Z,24.13
2022-08-19T01:33:07.079Z,24.13
2022-08-19T01:38:22.514Z,24.16
2022-08-19T01:43:25.373Z,24.16
2022-08-19T01:48:30.379Z,24.16
2022-08-19T01:53:33.887Z,24.14
2022-08-19T01:58:46.175Z,24.09
2022-08-19T02:03:49.423Z,24.07
2022-08-19T02:08:52.450Z,24.06
2022-08-19T02:14:03.278Z,24.04
2022-08-19T02:19:06.305Z,24.00
2022-08-19T02:24:09.141Z,23.94
2022-08-19T02:29:12.156Z,23.86
2022-08-19T02:34:15.284Z,23.81
2022-08-19T02:39:18.988Z,23.82
2022-08-19T02:44:31.309Z,23.85
2022-08-19T02:49:35.000Z,23.86
2022-08-19T02:54:39.427Z,23.82
2022-08-19T02:59:42.420Z,23.77
2022-08-19T03:04:45.667Z,23.69
2022-08-19T03:09:48.550Z,23.59
2022-08-19T03:14:52.172Z,23.51
2022-08-19T03:19:55.079Z,23.46
2022-08-19T03:24:58.014Z,23.44
2022-08-19T03:30:01.016Z,23.43
2022-08-19T03:35:04.328Z,23.44
2022-08-19T03:40:07.875Z,23.43
2022-08-19T03:45:17.332Z,23.39
2022-08-19T03:50:20.758Z,23.34
2022-08-19T03:55:23.716Z,23.31
2022-08-19T04:00:27.107Z,23.29
2022-08-19T04:05:30.353Z,23.31
2022-08-19T04:10:39.537Z,23.35
2022-08-19T04:15:44.171Z,23.37
2022-08-19T04:20:48.654Z,23.35
2022-08-19T04:25:51.750Z,23.32
2022-08-19T04:30:55.942Z,23.31
2022-08-19T04:35:59.348Z,23.28
2022-08-19T04:41:22.576Z,23.28
2022-08-19T04:46:40.103Z,23.31
2022-08-19T04:51:50.857Z,23.33
2022-08-19T04:56:54.509Z,23.35
2022-08-19T05:01:57.382Z,23.35
2022-08-19T05:07:02.381Z,23.41
2022-08-19T05:12:07.127Z,23.59
2022-08-19T05:22:34.021Z,24.11
2022-08-19T05:27:37.183Z,24.36
2022-08-19T05:32:41.073Z,24.52
2022-08-19T05:37:44.075Z,24.69
2022-08-19T05:42:47.166Z,24.78
2022-08-19T05:47:59.548Z,24.83
2022-08-19T05:53:02.541Z,24.85
2022-08-19T05:58:08.675Z,24.88
2022-08-19T06:03:13.449Z,24.94
2022-08-19T06:08:19.618Z,24.98
2022-08-19T06:13:23.745Z,25.02
2022-08-19T06:18:26.696Z,25.04
2022-08-19T06:23:30.565Z,25.09
2022-08-19T06:28:34.548Z,25.14
2022-08-19T06:33:38.387Z,25.18
2022-08-19T06:38:41.754Z,25.25
2022-08-19T06:43:45.367Z,25.34
2022-08-19T06:48:49.194Z,25.42
2022-08-19T06:53:54.623Z,25.50
2022-08-19T06:58:59.584Z,25.56
2022-08-19T07:04:03.439Z,25.59
2022-08-19T07:09:08.394Z,25.69
2022-08-19T07:14:19.153Z,25.83
2022-08-19T07:19:28.158Z,25.97
2022-08-19T07:24:33.614Z,26.10
2022-08-19T07:29:38.114Z,26.17
2022-08-19T07:34:41.536Z,26.25
2022-08-19T07:39:45.947Z,26.30
2022-08-19T07:44:50.303Z,26.33
2022-08-19T07:49:53.873Z,26.33
2022-08-19T07:54:56.805Z,26.31
2022-08-19T08:00:00.333Z,26.41
2022-08-19T08:05:22.589Z,26.61
2022-08-19T08:10:26.311Z,26.80
2022-08-19T08:15:29.723Z,26.96
2022-08-19T08:20:33.161Z,27.07
2022-08-19T08:25:37.399Z,27.20
2022-08-19T08:30:45.249Z,27.30
2022-08-19T08:35:49.091Z,27.45
2022-08-19T08:41:00.219Z,27.56
2022-08-19T08:46:12.303Z,27.71
2022-08-19T08:51:31.864Z,27.86
2022-08-19T08:56:40.938Z,27.99
2022-08-19T09:01:44.451Z,28.04
2022-08-19T09:07:18.005Z,28.17
2022-08-19T09:12:26.803Z,28.35
2022-08-19T09:17:32.213Z,28.51
2022-08-19T09:22:37.124Z,28.68
2022-08-19T09:27:44.075Z,28.85
2022-08-19T09:32:47.141Z,29.03
2022-08-19T09:37:59.600Z,29.19
2022-08-19T09:43:11.389Z,29.35
2022-08-19T09:48:19.101Z,29.48
2022-08-19T09:53:27.670Z,29.65
2022-08-19T09:58:32.391Z,29.84
2022-08-19T10:03:37.093Z,30.00
2022-08-19T10:08:40.950Z,30.18
2022-08-19T10:13:53.848Z,30.39
2022-08-19T10:18:59.107Z,30.59
2022-08-19T10:24:05.440Z,30.78
2022-08-19T10:29:09.285Z,30.99
2022-08-19T10:34:27.081Z,31.18
2022-08-19T10:39:32.870Z,31.36
2022-08-19T10:44:47.857Z,31.55
2022-08-19T10:50:11.757Z,31.63
2022-08-19T10:55:33.482Z,31.71
2022-08-19T11:00:36.343Z,31.79
2022-08-19T11:05:41.077Z,31.93
2022-08-19T11:10:50.305Z,32.05
2022-08-19T11:16:11.762Z,32.20
2022-08-19T11:21:14.979Z,32.33
2022-08-19T11:26:19.829Z,32.47
2022-08-19T11:31:29.438Z,32.65
2022-08-19T11:36:35.961Z,32.78
2022-08-19T11:41:39.008Z,32.92
2022-08-19T11:46:47.144Z,33.04
2022-08-19T11:51:51.785Z,33.18
2022-08-19T11:56:57.235Z,33.29
2022-08-19T12:02:00.307Z,33.37
2022-08-19T12:07:04.419Z,33.51
2022-08-19T12:12:07.670Z,33.68
2022-08-19T12:17:12.512Z,33.84
2022-08-19T12:22:16.898Z,33.97
2022-08-19T12:27:20.320Z,34.02
2022-08-19T12:32:38.332Z,34.02
2022-08-19T12:37:43.366Z,34.13
2022-08-19T12:42:46.674Z,34.22
2022-08-19T12:47:50.672Z,34.10
2022-08-19T12:52:59.198Z,34.24
2022-08-19T12:58:04.578Z,34.53
2022-08-19T13:03:07.736Z,34.73
2022-08-19T13:08:10.668Z,34.81
2022-08-19T13:13:13.662Z,34.91
2022-08-19T13:18:16.989Z,35.03
2022-08-19T13:23:19.920Z,35.14
2022-08-19T13:28:22.886Z,35.18
2022-08-19T13:33:34.228Z,35.25
2022-08-19T13:38:37.502Z,35.25
2022-08-19T13:43:40.533Z,35.33
2022-08-19T13:48:44.039Z,35.43
2022-08-19T13:53:48.145Z,35.48
2022-08-19T13:58:51.374Z,35.52
2022-08-19T14:03:54.483Z,35.57
2022-08-19T14:08:57.428Z,35.61
2022-08-19T14:14:00.567Z,35.63
2022-08-19T14:19:04.143Z,35.62
2022-08-19T14:24:07.645Z,35.53
2022-08-19T14:29:10.522Z,35.38
2022-08-19T14:34:13.887Z,35.19
2022-08-19T14:39:16.788Z,34.97
2022-08-19T14:44:19.618Z,34.69
2022-08-19T14:49:31.938Z,34.43
2022-08-19T14:54:38.607Z,34.14
2022-08-19T14:59:42.353Z,33.91
2022-08-19T15:04:45.342Z,33.66
2022-08-19T15:09:51.850Z,33.40
2022-08-19T15:14:56.861Z,33.25
2022-08-19T15:20:00.880Z,33.10
2022-08-19T15:25:06.785Z,32.96
2022-08-19T15:30:11.529Z,32.85
2022-08-19T15:35:14.595Z,32.77
2022-08-19T15:40:17.769Z,32.65
2022-08-19T15:45:22.571Z,32.54
2022-08-19T15:50:25.920Z,32.43
2022-08-19T15:55:35.179Z,32.36
2022-08-19T16:00:56.884Z,32.29
2022-08-19T16:06:19.280Z,32.21
2022-08-19T16:11:29.284Z,32.15
2022-08-19T16:16:34.461Z,32.10
2022-08-19T16:21:39.726Z,32.03
2022-08-19T16:26:45.730Z,31.95
2022-08-19T16:31:49.962Z,31.87
2022-08-19T16:36:52.890Z,31.76
2022-08-19T16:41:56.273Z,31.66
2022-08-19T16:47:00.382Z,31.55
2022-08-19T16:52:06.107Z,31.45
2022-08-19T16:57:08.960Z,31.39
2022-08-19T17:02:14.909Z,31.29
2022-08-19T17:07:17.896Z,31.21
2022-08-19T17:12:20.859Z,31.13
2022-08-19T17:17:28.740Z,31.05
2022-08-19T17:22:32.271Z,30.96
2022-08-19T17:27:35.260Z,30.82
2022-08-19T17:32:38.384Z,30.77
2022-08-19T17:37:42.641Z,30.71
2022-08-19T17:42:45.638Z,30.64
2022-08-19T17:47:48.665Z,30.60
2022-08-19T17:52:52.565Z,30.54
2022-08-19T17:57:55.569Z,30.50
2022-08-19T18:03:03.230Z,30.49
2022-08-19T18:08:10.736Z,30.45
2022-08-19T18:13:17.666Z,30.41
2022-08-19T18:18:21.473Z,30.32
2022-08-19T18:23:44.355Z,30.24
2022-08-19T18:28:50.043Z,30.16
2022-08-19T18:33:53.157Z,30.14
2022-08-19T18:39:14.978Z,30.11
2022-08-19T18:44:37.840Z,30.06
2022-08-19T18:49:40.961Z,30.02
2022-08-19T18:54:47.188Z,29.97
2022-08-19T18:59:52.149Z,29.93
2022-08-19T19:04:56.183Z,29.85
2022-08-19T19:09:59.058Z,29.81
2022-08-19T19:15:05.934Z,29.77
2022-08-19T19:20:10.025Z,29.74
2022-08-19T19:25:13.666Z,29.70
2022-08-19T19:30:16.803Z,29.63
2022-08-19T19:35:19.710Z,29.55
2022-08-19T19:40:22.808Z,29.39
2022-08-19T19:45:26.324Z,29.25
2022-08-19T19:50:30.318Z,29.06
2022-08-19T19:55:33.259Z,28.89
2022-08-19T20:00:36.597Z,28.77
2022-08-19T20:05:39.560Z,28.69
2022-08-19T20:10:43.881Z,28.62
2022-08-19T20:15:46.855Z,28.53
2022-08-19T20:20:51.012Z,28.46
2022-08-19T20:25:54.558Z,28.40
2022-08-19T20:30:58.095Z,28.34
2022-08-19T20:36:01.844Z,28.26
2022-08-19T20:41:05.951Z,28.20
2022-08-19T20:46:09.499Z,28.10
2022-08-19T20:51:13.659Z,27.97
2022-08-19T20:56:16.550Z,27.86
2022-08-19T21:01:19.447Z,27.72
2022-08-19T21:06:23.246Z,27.58
2022-08-19T21:11:26.171Z,27.41
2022-08-19T21:16:29.217Z,27.23
2022-08-19T21:21:33.347Z,27.10
2022-08-19T21:26:36.228Z,27.05
2022-08-19T21:31:39.384Z,27.04
2022-08-19T21:36:42.303Z,27.03
2022-08-19T21:41:45.205Z,26.97
2022-08-19T21:46:50.440Z,26.93
2022-08-19T21:51:53.675Z,26.88
2022-08-19T21:56:56.689Z,26.90
2022-08-19T22:02:15.629Z,26.87
2022-08-19T22:07:22.808Z,26.84
2022-08-19T22:12:29.768Z,26.77
2022-08-19T22:17:33.393Z,26.71
2022-08-19T22:22:38.050Z,26.64
2022-08-19T22:27:40.904Z,26.56
2022-08-19T22:32:46.603Z,26.50
2022-08-19T22:37:51.776Z,26.41
2022-08-19T22:43:03.549Z,26.30
2022-08-19T22:48:09.222Z,26.20
2022-08-19T22:53:12.394Z,26.14
2022-08-19T22:58:15.313Z,26.11
2022-08-19T23:03:31.144Z,26.06
2022-08-19T23:08:34.214Z,25.94
2022-08-19T23:13:39.552Z,25.83
2022-08-19T23:18:42.422Z,25.79
2022-08-19T23:23:45.785Z,25.79
2022-08-19T23:29:07.620Z,25.81
2022-08-19T23:34:11.134Z,25.83
2022-08-19T23:39:13.997Z,25.81
2022-08-19T23:44:18.399Z,25.76
2022-08-19T23:49:21.312Z,25.72
2022-08-19T23:54:34.309Z,25.74
2022-08-19T23:59:46.909Z,25.75
